Avon, CO (81620)

03:04 PM MDT del 23 Agosto 2016 (GMT -0600)
Beaver Creek | | Change Station

Alt. 8156 ft 39.61 °N, 106.52 °W | Updated 9 minutes ago

Clear
Sereno
66.4 °F
Sembra 66.4 °F
N
3.2
Vento Variabile Vento da NNE

Oggi
Massima -- | Minima -- °F
--% Possibilità di precip.
Ieri
Massima -- | Minima -- °F
Precip. -- in
Pressione 30.20 in
Visibilità 10.0 miglia
Nuvole Sereno
Punto di rugiada 41 °F
Umidità 40%
Piovosità 0.05 in
Spessore del manto nevoso Non disponibile.
6:26 AM 7:49 PM
Gobba a levante, 64% visible
METAR KEGE 232050Z 26007KT 10SM CLR 25/02 A3020
Pressione 30.20 in
Visibilità 10.0 miglia
Nuvole Sereno
Punto di rugiada 41 °F
Umidità 40%
Piovosità 0.05 in
Spessore del manto nevoso Non disponibile.
6:26 AM 7:49 PM
Gobba a levante, 64% visible
METAR KEGE 232050Z 26007KT 10SM CLR 25/02 A3020

10-Day Weather Forecast

Almanac

Astronomia

Aug. 23, 2016 Alba Tramonto
Ora attuale
Crepuscolo civile
Crepuscolo nautico
Crepuscolo astronomico
Luna
Estensione della luce visibile
Lunghezza del giorno
Tomorrow will be .
, % of the Moon is Illuminated

Gli estremi di oggi

State Highs State Lows

Community

WunderPhotos

Upload Photos

1,934,455 foto caricate!

WunderBlog® & News

Nearby

Qualità dell'aria

  Qualità dell'aria Indice AQ Inquinante
Not available.

Profondità neve

Stazione Profondità Altitudine

Attività sismica

Città  Distanza Mag. Data & Ora
Minimo Magnitudo Mostrato è 2.5.

Temperature delle acque costiere

Località Temperatura

Stations

Stazioni meteo nelle vicinanze

Ubicazione della stazione Temp. Raffreddamento del vento Punto di rugiada Umidità Vento Precip. Alt. Aggiornato Tipo
                   

Watches & Warnings

There are currently no watches in effect.